TAF

Letisková predpoveď TAF

Informácie o správe TAF

24.08.2016 - 02:00 UTC

TAF LZSL 240200Z 2403/2412 VRB02KT 4000 BR FEW005
    PROB40 TEMPO 2403/2407 0200 FG BKN001
    BECMG 2407/2409 9999 FEW055=
TAF LZZI 240200Z 2403/2412 VRB02KT 5000 BR FEW003
    TEMPO 2403/2407 0200 FG OVC001
    BECMG 2407/2409 04005KT 9999 FEW055=

24.08.2016 - 02:00 UTC

TAF LZSL 240200Z 2403/2412 VRB02KT 4000 BR FEW005
    PROB40 TEMPO 2403/2407 0200 FG BKN001
    BECMG 2407/2409 9999 FEW055=
TAF LZZI 240200Z 2403/2412 VRB02KT 5000 BR FEW003
    TEMPO 2403/2407 0200 FG OVC001
    BECMG 2407/2409 04005KT 9999 FEW055=

skok na menu ↑


skok na začiatok stránky ↑